Time;durP1;ratioP1;P1;durP2;ratioP2;P2;SDS_P1;SDS_P2;PMS_P1;PMS_P2;Temp;Humidity;BMP_temperature;BMP_pressure;BME280_temperature;BME280_humidity;BME280_pressure;Samples;Min_cycle;Max_cycle;Signal;HPM_P1;HPM_P2
2023/04/08 00:01:39;;;;;;;28.40;22.95;;;;;;;6.53;100.00;100798.56;5034327;28;20021;-78
2023/04/08 00:04:04;;;;;;;28.95;23.33;;;;;;;6.40;100.00;100776.69;5033624;28;20117;-80
2023/04/08 00:06:30;;;;;;;30.20;23.83;;;;;;;6.74;100.00;100826.38;5034198;28;20087;-80
2023/04/08 00:09:02;;;;;;;27.95;22.98;;;;;;;6.59;100.00;100775.84;5034727;28;20492;-81
2023/04/08 00:11:28;;;;;;;28.13;23.33;;;;;;;6.37;100.00;100738.78;5016505;28;20393;-80
2023/04/08 00:13:53;;;;;;;26.65;22.52;;;;;;;6.90;100.00;100801.13;5017269;28;20040;-81
2023/04/08 00:16:19;;;;;;;29.08;22.95;;;;;;;6.99;100.00;100821.34;5017212;28;20178;-81
2023/04/08 00:18:44;;;;;;;28.38;21.92;;;;;;;6.97;100.00;100790.16;5034732;28;20029;-80
2023/04/08 00:21:10;;;;;;;29.17;23.45;;;;;;;6.97;100.00;100786.81;5016800;28;20037;-78
2023/04/08 00:23:35;;;;;;;26.85;22.90;;;;;;;5.74;100.00;100552.78;5016175;28;20112;-81
2023/04/08 00:26:01;;;;;;;31.13;23.35;;;;;;;6.92;100.00;100789.34;5033914;28;20033;-84
2023/04/08 00:28:26;;;;;;;31.08;23.33;;;;;;;6.95;100.00;100765.75;5034283;28;20443;-83
2023/04/08 00:30:52;;;;;;;26.48;21.67;;;;;;;7.01;100.00;100726.13;5033868;28;20033;-80
2023/04/08 00:33:17;;;;;;;27.98;22.55;;;;;;;6.94;100.00;100710.97;5033712;28;20029;-82
2023/04/08 00:35:43;;;;;;;26.48;22.40;;;;;;;6.43;100.00;100562.88;5033554;28;20049;-81
2023/04/08 00:38:08;;;;;;;28.65;23.55;;;;;;;6.73;100.00;100600.69;5033819;28;20167;-81
2023/04/08 00:40:34;;;;;;;29.95;23.60;;;;;;;6.65;100.00;100593.97;5033528;28;20403;-84
2023/04/08 00:43:00;;;;;;;27.02;22.73;;;;;;;7.18;100.00;100669.63;5031843;28;20022;-80
2023/04/08 00:45:25;;;;;;;28.92;23.08;;;;;;;6.63;100.00;100577.97;4996529;28;20030;-78
2023/04/08 00:47:51;;;;;;;31.15;23.60;;;;;;;7.03;100.00;100635.16;4996939;28;20065;-80
2023/04/08 00:50:17;;;;;;;30.02;24.17;;;;;;;6.80;100.00;100604.03;4996639;28;20156;-79
2023/04/08 00:52:42;;;;;;;28.98;24.15;;;;;;;6.76;100.00;100560.25;4996345;28;20030;-76
2023/04/08 00:55:08;;;;;;;30.30;25.10;;;;;;;7.27;100.00;100629.97;4996904;28;20036;-79
2023/04/08 00:57:34;;;;;;;27.00;23.10;;;;;;;6.90;100.00;100547.56;5028493;28;20384;-82
2023/04/08 00:59:59;;;;;;;28.83;22.88;;;;;;;7.46;100.00;100629.06;5013855;28;20029;-82
2023/04/08 01:03:01;;;;;;;28.05;23.65;;;;;;;7.35;100.00;100632.50;5029364;28;20057;-83
2023/04/08 01:05:45;;;;;;;27.17;23.17;;;;;;;7.14;100.00;100592.13;5029248;28;20121;-84
2023/04/08 01:08:11;;;;;;;26.92;22.65;;;;;;;7.47;100.00;100589.41;4996543;28;20050;-83
2023/04/08 01:10:41;;;;;;;29.15;23.23;;;;;;;7.27;100.00;100535.59;5029242;28;20033;-83
2023/04/08 01:13:14;;;;;;;27.70;23.42;;;;;;;6.70;100.00;100471.00;5028984;28;20109;-83
2023/04/08 01:15:43;;;;;;;28.52;23.52;;;;;;;7.32;100.00;100622.38;4995890;28;20038;-79
2023/04/08 01:18:12;;;;;;;29.90;23.50;;;;;;;7.51;100.00;100573.38;5029191;28;20034;-81
2023/04/08 01:20:39;;;;;;;31.02;23.67;;;;;;;7.38;100.00;100592.00;5013666;28;20551;-80
2023/04/08 01:23:32;;;;;;;28.90;23.45;;;;;;;7.47;100.00;100579.28;5013251;28;20571;-81
2023/04/08 01:25:58;;;;;;;28.25;23.25;;;;;;;7.35;100.00;100559.16;5013485;28;20554;-82
2023/04/08 01:28:28;;;;;;;27.75;23.30;;;;;;;7.11;100.00;100498.59;4995530;28;20029;-81
2023/04/08 01:30:56;;;;;;;28.63;24.08;;;;;;;7.65;100.00;100571.59;5013078;28;20096;-80
2023/04/08 01:33:23;;;;;;;30.90;23.67;;;;;;;6.92;100.00;100475.97;5013245;28;20037;-81
2023/04/08 01:35:50;;;;;;;29.83;23.40;;;;;;;7.07;100.00;100489.38;4996073;28;20068;-81
2023/04/08 01:38:19;;;;;;;27.92;23.00;;;;;;;7.48;100.00;100581.00;5013099;28;20026;-78
2023/04/08 01:40:46;;;;;;;27.55;22.33;;;;;;;6.42;100.00;100431.59;5013340;28;20038;-81
2023/04/08 01:43:16;;;;;;;27.83;22.70;;;;;;;7.08;100.00;100488.50;4995918;28;20033;-83
2023/04/08 01:45:45;;;;;;;26.95;22.77;;;;;;;7.00;100.00;100491.06;5028870;28;20041;-81
2023/04/08 01:48:14;;;;;;;27.50;22.40;;;;;;;7.39;100.00;100563.34;5012857;28;20112;-81
2023/04/08 01:50:44;;;;;;;28.75;22.48;;;;;;;7.11;100.00;100491.84;4995780;28;20030;-82
2023/04/08 01:53:11;;;;;;;27.42;21.80;;;;;;;7.70;100.00;100554.72;4995503;28;20420;-81
2023/04/08 01:55:40;;;;;;;26.27;21.63;;;;;;;7.27;100.00;100586.19;4995473;28;20029;-85
2023/04/08 01:58:07;;;;;;;27.20;21.17;;;;;;;6.81;100.00;100513.06;5012804;28;20041;-81
2023/04/08 02:00:34;;;;;;;29.80;21.92;;;;;;;7.41;100.00;100571.75;5011939;28;20033;-82
2023/04/08 02:03:01;;;;;;;25.55;21.70;;;;;;;6.94;100.00;100498.69;4995241;28;20034;-82
2023/04/08 02:05:27;;;;;;;29.00;22.25;;;;;;;7.63;100.00;100601.13;4995034;28;20030;-80
2023/04/08 02:07:52;;;;;;;30.10;21.77;;;;;;;7.07;100.00;100523.06;4995072;28;20081;-80
2023/04/08 02:10:18;;;;;;;26.83;21.83;;;;;;;7.42;100.00;100594.53;5027775;28;20117;-82
2023/04/08 02:12:44;;;;;;;27.05;21.50;;;;;;;7.47;100.00;100602.06;5012949;28;20116;-82
2023/04/08 02:15:11;;;;;;;25.92;21.25;;;;;;;6.86;100.00;100516.41;5012661;28;20034;-82
2023/04/08 02:17:36;;;;;;;28.45;22.13;;;;;;;7.36;100.00;100614.78;5012205;28;20168;-81
2023/04/08 02:20:06;;;;;;;29.27;21.85;;;;;;;7.23;100.00;100607.25;5011988;28;20113;-82
2023/04/08 02:22:49;;;;;;;26.40;21.73;;;;;;;7.36;100.00;100588.66;5012668;28;20111;-81
2023/04/08 02:25:22;;;;;;;27.40;21.63;;;;;;;6.82;100.00;100544.22;4995477;28;20057;-83
2023/04/08 02:27:48;;;;;;;18.45;15.75;;;;;;;6.28;100.00;100498.94;5012468;28;20030;-79
2023/04/08 02:30:15;;;;;;;25.40;20.98;;;;;;;6.72;100.00;100548.47;4994535;28;20038;-78
2023/04/08 02:32:42;;;;;;;24.95;21.17;;;;;;;7.06;100.00;100619.09;4993642;28;20512;-77
2023/04/08 02:35:10;;;;;;;26.88;21.73;;;;;;;7.13;100.00;100588.75;5013052;28;20057;-83
2023/04/08 02:37:36;;;;;;;25.88;20.73;;;;;;;8.39;100.00;100543.16;5012169;28;20096;-76
2023/04/08 02:40:01;;;;;;;24.55;19.85;;;;;;;7.98;100.00;100618.63;4993547;28;20033;-73
2023/04/08 02:42:26;;;;;;;25.73;20.85;;;;;;;7.25;100.00;100565.13;5011189;28;20091;-74
2023/04/08 02:44:52;;;;;;;24.60;21.10;;;;;;;7.27;100.00;100564.22;5011037;28;20042;-74
2023/04/08 02:47:17;;;;;;;24.17;19.77;;;;;;;8.06;100.00;100551.88;4994745;28;20467;-70
2023/04/08 02:49:43;;;;;;;23.83;20.35;;;;;;;6.71;100.00;100553.53;5012309;28;20030;-75
2023/04/08 02:52:09;;;;;;;26.60;21.35;;;;;;;7.00;100.00;100603.13;5011362;28;20057;-76
2023/04/08 02:54:35;;;;;;;26.45;20.10;;;;;;;7.07;100.00;100636.81;4994578;28;20038;-75
2023/04/08 02:57:01;;;;;;;24.17;20.35;;;;;;;6.62;100.00;100601.53;4990121;28;20423;-75
2023/04/08 02:59:26;;;;;;;23.90;19.60;;;;;;;6.83;100.00;100566.94;5007083;28;20026;-76
2023/04/08 03:01:52;;;;;;;27.27;21.25;;;;;;;7.19;100.00;100643.53;5013641;28;20033;-75
2023/04/08 03:04:17;;;;;;;25.00;21.05;;;;;;;7.42;100.00;100646.78;5013844;28;20499;-74
2023/04/08 03:06:42;;;;;;;28.38;22.13;;;;;;;7.09;100.00;100622.47;5030744;28;20054;-74
2023/04/08 03:09:08;;;;;;;27.65;20.98;;;;;;;6.80;100.00;100591.41;5031116;28;20038;-76
2023/04/08 03:11:34;;;;;;;26.75;20.60;;;;;;;6.79;100.00;100592.25;5011756;28;20030;-77
2023/04/08 03:13:59;;;;;;;24.92;20.67;;;;;;;7.24;100.00;100636.75;5034604;28;20480;-77
2023/04/08 03:16:32;;;;;;;25.40;21.40;;;;;;;6.75;100.00;100588.06;5035963;28;20030;-78
2023/04/08 03:18:57;;;;;;;23.90;20.35;;;;;;;7.25;100.00;100651.09;4999759;28;20057;-77
2023/04/08 03:21:23;;;;;;;24.58;20.58;;;;;;;7.13;100.00;100662.06;5033765;28;20484;-76
2023/04/08 03:23:49;;;;;;;23.50;20.92;;;;;;;7.36;100.00;100659.47;5015976;28;20041;-77
2023/04/08 03:26:14;;;;;;;22.75;19.90;;;;;;;7.33;100.00;100667.06;4979581;28;20406;-78
2023/04/08 03:28:40;;;;;;;26.20;20.38;;;;;;;7.42;100.00;100657.75;4994501;28;20037;-78
2023/04/08 03:31:05;;;;;;;26.85;19.77;;;;;;;7.00;100.00;100609.88;4995140;28;20109;-75
2023/04/08 03:33:32;;;;;;;27.05;20.55;;;;;;;7.46;100.00;100679.66;5006985;28;20049;-76
2023/04/08 03:35:58;;;;;;;23.83;20.20;;;;;;;8.76;100.00;100655.97;5028433;28;20121;-76
2023/04/08 03:38:23;;;;;;;23.30;19.60;;;;;;;7.19;100.00;100666.28;4996757;28;20729;-74
2023/04/08 03:40:49;;;;;;;23.98;19.70;;;;;;;7.62;100.00;100670.31;5014474;28;20026;-76
2023/04/08 03:43:15;;;;;;;22.77;19.33;;;;;;;7.16;100.00;100701.66;5014246;28;20052;-75
2023/04/08 03:45:41;;;;;;;59.20;21.83;;;;;;;7.26;100.00;100726.94;5029356;28;20065;-71
2023/04/08 03:48:06;;;;;;;25.67;19.60;;;;;;;7.56;100.00;100556.50;5014298;28;20030;-78
2023/04/08 03:50:32;;;;;;;25.88;20.17;;;;;;;7.09;100.00;100674.72;4997861;28;20029;-79
2023/04/08 03:52:57;;;;;;;26.08;20.52;;;;;;;7.31;100.00;100720.16;5029752;28;20037;-78
2023/04/08 03:55:23;;;;;;;25.38;20.45;;;;;;;7.09;100.00;100708.41;5013819;28;20026;-78
2023/04/08 03:57:48;;;;;;;25.45;20.92;;;;;;;6.71;100.00;100650.38;4996243;28;20137;-77
2023/04/08 04:00:14;;;;;;;25.83;21.15;;;;;;;6.96;100.00;100654.53;5015429;28;20117;-78
2023/04/08 04:02:40;;;;;;;26.60;21.83;;;;;;;7.19;100.00;100732.81;5014307;28;20030;-79
2023/04/08 04:05:05;;;;;;;26.98;21.58;;;;;;;7.21;100.00;100720.22;5014007;28;20412;-77
2023/04/08 04:07:31;;;;;;;28.42;22.70;;;;;;;7.26;100.00;100746.31;5015397;28;20408;-78
2023/04/08 04:09:56;;;;;;;26.92;21.88;;;;;;;7.26;100.00;100738.72;5014139;28;20128;-78
2023/04/08 04:12:22;;;;;;;25.23;21.73;;;;;;;6.67;100.00;100656.28;4996706;28;20133;-78
2023/04/08 04:14:48;;;;;;;27.90;21.73;;;;;;;7.48;100.00;100741.19;5029535;28;20040;-78
2023/04/08 04:17:13;;;;;;;26.85;22.48;;;;;;;7.13;100.00;100664.59;5028915;28;20412;-81
2023/04/08 04:19:39;;;;;;;27.13;22.90;;;;;;;7.27;100.00;100731.13;4997422;28;20034;-80
2023/04/08 04:22:04;;;;;;;25.98;22.73;;;;;;;6.80;100.00;100692.47;5015055;28;20147;-80
2023/04/08 04:24:30;;;;;;;26.55;22.40;;;;;;;7.39;100.00;100742.91;4996676;28;20030;-79
2023/04/08 04:26:55;;;;;;;26.10;22.67;;;;;;;7.23;100.00;100741.28;5014188;28;20040;-77
2023/04/08 04:29:21;;;;;;;28.60;23.65;;;;;;;7.17;100.00;100758.97;5014077;28;20116;-79
2023/04/08 04:31:46;;;;;;;27.23;22.95;;;;;;;7.03;100.00;100752.25;5014041;28;20049;-79
2023/04/08 04:34:11;;;;;;;30.45;23.17;;;;;;;7.34;100.00;100759.78;5014434;28;20056;-80
2023/04/08 04:36:37;;;;;;;28.73;23.08;;;;;;;7.17;100.00;100741.28;5014385;28;20396;-78
2023/04/08 04:39:02;;;;;;;27.55;22.90;;;;;;;7.32;100.00;100764.84;5014099;28;20396;-79
2023/04/08 04:41:28;;;;;;;26.92;22.20;;;;;;;6.72;100.00;100664.69;5013529;28;20034;-80
2023/04/08 04:43:53;;;;;;;28.25;21.40;;;;;;;7.31;100.00;100757.28;5029980;28;20256;-80
2023/04/08 04:46:19;;;;;;;27.67;22.48;;;;;;;6.55;100.00;100625.13;5030001;28;20026;-77
2023/04/08 04:48:44;;;;;;;28.23;21.90;;;;;;;7.15;100.00;100685.66;5028954;28;20046;-78
2023/04/08 04:51:10;;;;;;;28.30;22.92;;;;;;;7.01;100.00;100685.69;4996391;28;20029;-78
2023/04/08 04:53:35;;;;;;;28.17;22.83;;;;;;;6.96;100.00;100689.91;5013627;28;20124;-80
2023/04/08 04:56:01;;;;;;;28.85;21.88;;;;;;;7.22;100.00;100757.28;5028453;28;20026;-78
2023/04/08 04:58:26;;;;;;;26.35;21.60;;;;;;;6.81;100.00;100694.97;5013214;28;20030;-79
2023/04/08 05:00:52;;;;;;;29.20;23.58;;;;;;;7.09;100.00;100725.28;4996601;28;20756;-76
2023/04/08 05:03:17;;;;;;;26.85;21.98;;;;;;;7.29;100.00;100767.38;5028599;28;20030;-78
2023/04/08 05:05:43;;;;;;;25.52;21.75;;;;;;;7.55;100.00;100768.16;5013267;28;20030;-77
2023/04/08 05:08:08;;;;;;;31.88;23.73;;;;;;;7.44;100.00;100767.34;5013011;28;20046;-78
2023/04/08 05:10:34;;;;;;;33.10;23.13;;;;;;;7.43;100.00;100783.34;5013524;28;20401;-77
2023/04/08 05:12:59;;;;;;;28.33;22.23;;;;;;;7.14;100.00;100713.47;5013235;28;20042;-79
2023/04/08 05:15:25;;;;;;;30.38;22.73;;;;;;;7.64;100.00;100782.47;4995827;28;20042;-77
2023/04/08 05:17:50;;;;;;;26.05;21.40;;;;;;;7.31;100.00;100706.69;5012641;28;20040;-77
2023/04/08 05:20:16;;;;;;;26.58;21.13;;;;;;;7.81;100.00;100775.66;5013609;28;20117;-77
2023/04/08 05:22:43;;;;;;;27.52;19.98;;;;;;;8.12;100.00;100794.91;4995868;28;20026;-76
2023/04/08 05:25:09;;;;;;;24.25;19.25;;;;;;;7.84;100.00;100766.34;4995595;28;20444;-78
2023/04/08 05:27:35;;;;;;;23.38;20.08;;;;;;;7.60;100.00;100785.84;4995803;28;20120;-79
2023/04/08 05:30:00;;;;;;;27.88;21.08;;;;;;;7.84;100.00;100814.44;4996253;28;20044;-79
2023/04/08 05:32:26;;;;;;;24.95;20.27;;;;;;;8.10;100.00;100785.66;4995881;28;20113;-79
2023/04/08 05:34:51;;;;;;;24.33;20.40;;;;;;;7.79;100.00;100725.03;5012148;28;20497;-80
2023/04/08 05:37:16;;;;;;;25.42;20.58;;;;;;;8.32;100.00;100810.88;5028157;28;20034;-79
2023/04/08 05:39:42;;;;;;;26.27;19.73;;;;;;;7.90;100.00;100728.34;5013145;28;20038;-79
2023/04/08 05:42:07;;;;;;;23.52;20.10;;;;;;;8.70;100.00;100819.09;5028436;28;20056;-79
2023/04/08 05:44:33;;;;;;;29.13;23.23;;;;;;;8.56;100.00;100817.50;5028541;28;20038;-79
2023/04/08 05:46:59;;;;;;;23.63;19.25;;;;;;;8.11;100.00;100735.00;4995587;28;20192;-78
2023/04/08 05:49:24;;;;;;;25.20;20.67;;;;;;;8.42;100.00;100799.84;5028439;28;20021;-79
2023/04/08 05:51:50;;;;;;;24.70;21.00;;;;;;;8.18;100.00;100730.75;4995601;28;20408;-78
2023/04/08 05:54:15;;;;;;;25.35;20.23;;;;;;;8.69;100.00;100830.06;5013140;28;20512;-79
2023/04/08 05:56:41;;;;;;;27.48;23.27;;;;;;;8.88;100.00;100796.97;4995378;28;20033;-78
2023/04/08 05:59:06;;;;;;;23.15;19.60;;;;;;;8.44;100.00;100789.69;4995278;28;20033;-79
2023/04/08 06:01:31;;;;;;;24.95;20.00;;;;;;;8.31;100.00;100763.63;5013049;28;20542;-78
2023/04/08 06:03:57;;;;;;;24.25;19.73;;;;;;;7.98;100.00;100768.84;4995491;28;20064;-79
2023/04/08 06:06:24;;;;;;;24.38;19.95;;;;;;;8.65;100.00;100835.19;5012210;28;20054;-78
2023/04/08 06:08:50;;;;;;;23.23;19.27;;;;;;;8.70;100.00;100839.38;5013332;28;20046;-78
2023/04/08 06:11:15;;;;;;;24.40;20.52;;;;;;;8.90;100.00;100846.00;5012458;28;20511;-78
2023/04/08 06:13:41;;;;;;;25.17;19.20;;;;;;;8.58;100.00;100849.59;5012561;28;20021;-79
2023/04/08 06:16:15;;;;;;;23.75;19.60;;;;;;;9.26;100.00;100830.47;4995083;28;20408;-80
2023/04/08 06:18:41;;;;;;;22.75;19.75;;;;;;;9.33;100.00;100837.22;5012622;28;20036;-80
2023/04/08 06:21:07;;;;;;;22.55;18.88;;;;;;;9.31;100.00;100771.22;5012659;28;20030;-79
2023/04/08 06:23:32;;;;;;;23.23;19.20;;;;;;;9.79;100.00;100828.25;5011999;28;20044;-81
2023/04/08 06:25:58;;;;;;;23.05;19.40;;;;;;;10.24;100.00;100854.84;4994385;28;20532;-81
2023/04/08 06:28:23;;;;;;;22.30;19.23;;;;;;;9.38;100.00;100808.38;5011994;28;20038;-79
2023/04/08 06:30:49;;;;;;;22.63;19.00;;;;;;;9.59;100.00;100853.00;5011856;28;20032;-79
2023/04/08 06:33:14;;;;;;;21.58;18.33;;;;;;;9.51;100.00;100872.53;5012496;28;20525;-79
2023/04/08 06:35:40;;;;;;;21.88;18.98;;;;;;;9.64;100.00;100787.81;4994979;28;20144;-79
2023/04/08 06:38:06;;;;;;;22.55;16.92;;;;;;;9.51;100.00;100835.31;4994896;28;20205;-78
2023/04/08 06:40:31;;;;;;;23.52;17.90;;;;;;;10.33;100.00;100852.19;4994946;28;20120;-79
2023/04/08 06:42:57;;;;;;;21.95;17.30;;;;;;;10.19;100.00;100854.91;5012198;28;20123;-79
2023/04/08 06:45:23;;;;;;;20.60;17.08;;;;;;;10.08;100.00;100863.50;4993619;28;20153;-79
2023/04/08 06:47:48;;;;;;;19.00;16.85;;;;;;;10.16;100.00;100793.94;5011641;28;20512;-80
2023/04/08 06:50:14;;;;;;;23.10;18.98;;;;;;;10.19;100.00;100849.81;4994625;28;20030;-78
2023/04/08 06:52:39;;;;;;;22.02;17.65;;;;;;;10.60;100.00;100854.34;4994163;28;20036;-80
2023/04/08 06:55:05;;;;;;;21.63;17.95;;;;;;;9.68;100.00;100852.06;4994680;28;20034;-78
2023/04/08 06:57:30;;;;;;;20.52;18.33;;;;;;;10.77;100.00;100856.66;5011482;28;20034;-78
2023/04/08 06:59:56;;;;;;;22.27;18.30;;;;;;;10.86;100.00;100828.53;5011507;28;20064;-78
2023/04/08 07:02:22;;;;;;;23.10;18.25;;;;;;;10.87;100.00;100809.88;4994398;28;20065;-79
2023/04/08 07:04:47;;;;;;;21.45;17.63;;;;;;;11.74;100.00;100816.00;5026844;28;20503;-79
2023/04/08 07:07:13;;;;;;;21.38;17.67;;;;;;;10.55;100.00;100753.59;4996120;28;20045;-78
2023/04/08 07:09:40;;;;;;;22.00;18.85;;;;;;;11.33;100.00;100800.59;5012207;28;20511;-77
2023/04/08 07:12:20;;;;;;;22.00;17.92;;;;;;;11.30;100.00;100770.13;5011803;28;20026;-78
2023/04/08 07:14:46;;;;;;;20.73;17.45;;;;;;;10.68;100.00;100839.81;5010490;28;20069;-77
2023/04/08 07:17:11;;;;;;;22.50;16.90;;;;;;;10.78;100.00;100837.97;5011020;28;20483;-76
2023/04/08 07:19:37;;;;;;;22.40;17.20;;;;;;;10.83;100.00;100828.59;5011436;28;20065;-76
2023/04/08 07:22:03;;;;;;;21.92;18.10;;;;;;;10.97;100.00;100850.41;5010929;28;20129;-76
2023/04/08 07:24:28;;;;;;;23.25;18.52;;;;;;;10.26;100.00;100810.75;5011265;28;20116;-76
2023/04/08 07:26:55;;;;;;;22.42;19.02;;;;;;;10.39;100.00;100886.00;5010202;28;20415;-76
2023/04/08 07:29:21;;;;;;;21.33;16.63;;;;;;;9.94;100.00;100807.78;5010666;28;20451;-76
2023/04/08 07:31:46;;;;;;;25.73;19.85;;;;;;;10.66;100.00;100897.50;5011229;28;20033;-77
2023/04/08 07:34:12;;;;;;;26.20;20.20;;;;;;;10.46;100.00;100843.53;5011611;28;20466;-76
2023/04/08 07:36:38;;;;;;;29.88;22.05;;;;;;;11.59;100.00;100915.56;5010624;28;20037;-80
2023/04/08 07:39:03;;;;;;;19.88;17.77;;;;;;;11.80;100.00;100914.41;5043308;28;20060;-76
2023/04/08 07:41:28;;;;;;;21.13;18.88;;;;;;;11.10;100.00;100851.91;5011128;28;20489;-77
2023/04/08 07:43:55;;;;;;;22.95;18.85;;;;;;;11.43;100.00;100819.13;5010126;28;20034;-79
2023/04/08 07:46:20;;;;;;;22.67;17.92;;;;;;;11.69;100.00;100896.75;5010618;28;20026;-79
2023/04/08 07:48:46;;;;;;;20.23;17.95;;;;;;;11.40;100.00;100844.63;5043462;28;20517;-78
2023/04/08 07:51:12;;;;;;;27.20;20.90;;;;;;;12.11;100.00;100832.22;5010462;28;20033;-77
2023/04/08 07:53:38;;;;;;;22.90;17.05;;;;;;;12.70;100.00;100924.50;5011456;28;20470;-79
2023/04/08 07:56:10;;;;;;;20.90;18.50;;;;;;;12.00;100.00;100908.06;5011128;28;20087;-80
2023/04/08 07:58:36;;;;;;;21.35;18.10;;;;;;;12.35;100.00;100914.19;5011187;28;20033;-78
2023/04/08 08:01:01;;;;;;;23.27;18.25;;;;;;;11.71;100.00;100851.72;5014716;28;20071;-78
2023/04/08 08:03:27;;;;;;;27.30;21.30;;;;;;;12.27;100.00;100839.56;5014913;28;20049;-80
2023/04/08 08:05:52;;;;;;;28.52;20.25;;;;;;;12.95;100.00;100912.88;5015121;28;20037;-79
2023/04/08 08:08:18;;;;;;;22.15;18.80;;;;;;;12.05;100.00;100814.50;5013947;28;20097;-79
2023/04/08 08:10:43;;;;;;;25.08;20.13;;;;;;;11.69;100.00;100769.38;5013968;28;20121;-80
2023/04/08 08:13:09;;;;;;;24.98;18.77;;;;;;;12.61;100.00;100813.28;5014700;28;20102;-79
2023/04/08 08:15:34;;;;;;;22.50;19.20;;;;;;;12.25;100.00;100872.72;5015453;28;20091;-79
2023/04/08 08:18:00;;;;;;;27.67;20.70;;;;;;;13.22;100.00;100824.59;5014474;28;20041;-79
2023/04/08 08:20:26;;;;;;;26.13;20.52;;;;;;;13.51;100.00;100889.41;5012973;28;20036;-78
2023/04/08 08:22:51;;;;;;;24.35;20.20;;;;;;;12.65;100.00;100870.19;5046353;28;20033;-79
2023/04/08 08:25:17;;;;;;;22.15;19.25;;;;;;;11.55;100.00;100762.88;5014331;28;20041;-77
2023/04/08 08:27:42;;;;;;;24.48;19.90;;;;;;;12.34;100.00;100890.38;5014220;28;20119;-77
2023/04/08 08:30:08;;;;;;;21.92;18.95;;;;;;;12.08;100.00;100880.72;5013612;28;20022;-79
2023/04/08 08:32:34;;;;;;;22.15;19.73;;;;;;;12.07;100.00;100843.38;5013211;28;20030;-79
2023/04/08 08:35:00;;;;;;;23.27;18.33;;;;;;;12.71;100.00;100909.16;5046415;28;20041;-78
2023/04/08 08:37:25;;;;;;;24.17;19.42;;;;;;;13.70;100.00;100887.22;5012895;28;20030;-79
2023/04/08 08:39:51;;;;;;;22.67;19.40;;;;;;;12.36;100.00;100806.22;5013201;28;20128;-80
2023/04/08 08:42:24;;;;;;;25.08;19.45;;;;;;;13.77;100.00;100888.72;5012871;28;20117;-79
2023/04/08 08:44:50;;;;;;;21.00;17.65;;;;;;;14.44;100.00;100906.47;5013805;28;20041;-78
2023/04/08 08:47:16;;;;;;;20.33;18.05;;;;;;;14.39;100.00;100874.25;5014149;28;20507;-78
2023/04/08 08:49:43;;;;;;;21.10;18.20;;;;;;;13.12;100.00;100806.13;5012977;28;20084;-78
2023/04/08 08:52:08;;;;;;;22.83;17.35;;;;;;;14.70;100.00;100796.50;5014361;28;20029;-78
2023/04/08 08:54:35;;;;;;;22.60;17.27;;;;;;;14.53;100.00;100829.47;5014687;28;20037;-78
2023/04/08 08:57:00;;;;;;;20.48;16.75;;;;;;;14.03;100.00;100755.06;5013091;28;20065;-76
2023/04/08 08:59:26;;;;;;;21.60;18.13;;;;;;;14.84;100.00;100818.25;5012872;28;20034;-79
2023/04/08 09:01:51;;;;;;;20.30;18.08;;;;;;;13.69;100.00;100753.50;5012237;28;20057;-77
2023/04/08 09:04:19;;;;;;;19.77;17.67;;;;;;;13.57;100.00;100781.94;5013700;28;20065;-77
2023/04/08 09:06:51;;;;;;;21.17;17.38;;;;;;;15.06;100.00;100771.41;5013187;28;20049;-78
2023/04/08 09:09:17;;;;;;;19.15;17.10;;;;;;;14.58;100.00;100801.16;5029529;28;20115;-79
2023/04/08 09:11:44;;;;;;;20.90;16.73;;;;;;;14.86;100.00;100814.75;5012383;28;20662;-77
2023/04/08 09:14:31;;;;;;;17.35;15.43;;;;;;;15.60;100.00;100795.19;5013983;28;20040;-80
2023/04/08 09:16:56;;;;;;;21.13;17.48;;;;;;;15.40;100.00;100779.63;5013412;28;20033;-79
2023/04/08 09:19:22;;;;;;;19.30;17.20;;;;;;;14.42;100.00;100697.63;4996246;28;20044;-77
2023/04/08 09:22:07;;;;;;;19.20;16.42;;;;;;;14.85;100.00;100753.38;5012310;28;20460;-78
2023/04/08 09:24:33;;;;;;;18.33;16.15;;;;;;;15.43;100.00;100678.78;4995951;28;20026;-77
2023/04/08 09:26:58;;;;;;;18.55;16.00;;;;;;;15.27;100.00;100759.63;4996299;28;20123;-79
2023/04/08 09:29:26;;;;;;;19.83;16.30;;;;;;;15.80;100.00;100662.84;5013176;28;20116;-78
2023/04/08 09:31:59;;;;;;;19.00;16.75;;;;;;;16.77;100.00;100752.22;5013558;28;20568;-79
2023/04/08 09:34:26;;;;;;;20.15;17.45;;;;;;;16.97;100.00;100700.84;5013400;28;20034;-78
2023/04/08 09:36:53;;;;;;;18.27;15.68;;;;;;;14.76;100.00;100621.38;5013499;28;20041;-78
2023/04/08 09:39:19;;;;;;;19.17;16.00;;;;;;;15.69;100.00;100653.00;5013677;28;20051;-80
2023/04/08 09:41:49;;;;;;;16.48;14.77;;;;;;;14.63;100.00;100551.88;4995628;28;20033;-79
2023/04/08 09:44:18;;;;;;;15.98;14.38;;;;;;;15.39;100.00;100634.44;4995957;28;20033;-79
2023/04/08 09:46:50;;;;;;;17.58;15.02;;;;;;;15.89;100.00;100652.22;4995768;28;20745;-80
2023/04/08 09:49:45;;;;;;;24.05;17.60;;;;;;;16.62;100.00;100650.16;5028775;28;20030;-78
2023/04/08 09:52:17;;;;;;;21.50;18.35;;;;;;;15.50;100.00;100565.72;5028862;28;20042;-75
2023/04/08 09:54:51;;;;;;;19.80;16.90;;;;;;;16.81;100.00;100641.59;5013176;28;20038;-78
2023/04/08 09:57:27;;;;;;;17.42;15.63;;;;;;;15.23;100.00;100578.72;5013202;28;20037;-78
2023/04/08 10:00:04;;;;;;;17.08;15.10;;;;;;;15.98;100.00;100606.56;4995586;28;20040;-79
2023/04/08 10:02:37;;;;;;;19.88;17.15;;;;;;;16.15;100.00;100526.31;5012847;28;20034;-80
2023/04/08 10:05:04;;;;;;;17.70;15.45;;;;;;;16.11;100.00;100483.75;5012893;28;20046;-77
2023/04/08 10:07:29;;;;;;;15.73;13.75;;;;;;;16.18;100.00;100550.13;4995467;28;20468;-76
2023/04/08 10:09:57;;;;;;;15.68;14.02;;;;;;;16.45;100.00;100471.13;4995463;28;20053;-76
2023/04/08 10:12:23;;;;;;;15.43;13.80;;;;;;;16.77;100.00;100508.25;4995632;28;20065;-79
2023/04/08 10:15:25;;;;;;;15.27;13.68;;;;;;;17.96;100.00;100481.97;5012743;28;20037;-80
2023/04/08 10:17:55;;;;;;;15.75;13.57;;;;;;;15.41;100.00;100393.53;5012382;28;20137;-78
2023/04/08 10:20:35;;;;;;;15.45;13.85;;;;;;;17.16;100.00;100455.03;5012749;28;20037;-78
2023/04/08 10:23:01;;;;;;;15.25;13.65;;;;;;;16.57;100.00;100432.09;5012081;28;20489;-78
2023/04/08 10:25:40;;;;;;;17.55;15.75;;;;;;;16.68;100.00;100427.31;5028381;28;20041;-79
2023/04/08 10:28:26;;;;;;;17.00;14.32;;;;;;;17.55;100.00;100390.63;5012913;28;20523;-78
2023/04/08 10:30:56;;;;;;;17.10;15.32;;;;;;;18.10;100.00;100366.31;5027480;28;20038;-78
2023/04/08 10:33:24;;;;;;;16.70;14.85;;;;;;;17.72;100.00;100203.69;5012717;28;20219;-78
2023/04/08 10:36:10;;;;;;;15.55;13.73;;;;;;;17.88;100.00;100152.22;5012539;28;20084;-79
2023/04/08 10:38:41;;;;;;;16.27;14.13;;;;;;;16.01;100.00;100110.56;4995084;28;20590;-79
2023/04/08 10:41:08;;;;;;;15.77;13.45;;;;;;;17.35;100.00;100095.97;5012515;28;20059;-78
2023/04/08 10:43:35;;;;;;;15.32;12.60;;;;;;;17.39;100.00;100099.22;5028157;28;20037;-78
2023/04/08 10:46:01;;;;;;;15.15;13.45;;;;;;;16.73;100.00;99996.56;5012267;28;20033;-78
2023/04/08 10:48:30;;;;;;;17.25;15.55;;;;;;;16.72;100.00;100061.66;4994630;28;20030;-78
2023/04/08 10:51:00;;;;;;;16.38;14.32;;;;;;;16.83;100.00;100102.19;5012043;28;20033;-77
2023/04/08 10:53:33;;;;;;;13.77;12.43;;;;;;;17.59;100.00;100114.41;5027782;28;20515;-77
2023/04/08 10:56:14;;;;;;;15.00;12.63;;;;;;;17.07;100.00;100100.91;5012587;28;20029;-76
2023/04/08 10:58:50;;;;;;;17.70;13.88;;;;;;;16.63;100.00;100100.63;4994959;28;20034;-78
2023/04/08 11:01:18;;;;;;;14.65;13.13;;;;;;;16.60;100.00;100074.31;5012186;28;20030;-78
2023/04/08 11:03:43;;;;;;;16.63;13.07;;;;;;;17.42;100.00;100034.75;5027522;28;20030;-77
2023/04/08 11:06:10;;;;;;;14.73;13.23;;;;;;;16.92;100.00;100030.63;5012412;28;20026;-78
2023/04/08 11:08:36;;;;;;;15.02;12.45;;;;;;;16.22;100.00;100040.28;4994923;28;20049;-79